Time;durP1;ratioP1;P1;durP2;ratioP2;P2;SDS_P1;SDS_P2;PMS_P1;PMS_P2;Temp;Humidity;BMP_temperature;BMP_pressure;BME280_temperature;BME280_humidity;BME280_pressure;Samples;Min_cycle;Max_cycle;Signal;HPM_P1;HPM_P2
2022/08/15 00:02:32;;;;;;;5.75;3.90;;;18.00;99.90;;;;;;5200650;28;20059;-61
2022/08/15 00:05:04;;;;;;;5.70;4.20;;;18.00;99.90;;;;;;5191360;28;20051;-61
2022/08/15 00:07:35;;;;;;;5.88;4.32;;;18.00;99.90;;;;;;5217359;28;20760;-61
2022/08/15 00:10:10;;;;;;;6.35;4.65;;;17.90;99.90;;;;;;5223626;28;20337;-60
2022/08/15 00:12:44;;;;;;;5.30;4.18;;;17.90;99.90;;;;;;5220038;28;20055;-61
2022/08/15 00:15:19;;;;;;;6.73;3.93;;;17.80;99.90;;;;;;5220165;28;20021;-61
2022/08/15 00:17:50;;;;;;;5.90;3.63;;;17.80;99.90;;;;;;5219161;28;20230;-61
2022/08/15 00:20:22;;;;;;;7.20;4.38;;;17.80;99.90;;;;;;5200478;28;20021;-61
2022/08/15 00:22:54;;;;;;;8.30;4.18;;;17.70;99.90;;;;;;5221803;28;20302;-60
2022/08/15 00:25:29;;;;;;;6.57;3.92;;;17.70;99.90;;;;;;5216701;28;20024;-60
2022/08/15 00:28:05;;;;;;;6.85;4.22;;;17.70;99.90;;;;;;5217478;28;20368;-60
2022/08/15 00:30:41;;;;;;;5.88;3.85;;;17.70;99.90;;;;;;5200990;28;20318;-61
2022/08/15 00:33:18;;;;;;;6.40;3.90;;;17.60;99.90;;;;;;5218577;28;20211;-61
2022/08/15 00:35:50;;;;;;;5.88;3.78;;;17.60;99.90;;;;;;5183918;28;20261;-60
2022/08/15 00:38:27;;;;;;;6.10;4.03;;;17.70;99.90;;;;;;5218520;28;20428;-60
2022/08/15 00:44:11;;;;;;;6.40;4.05;;;17.70;99.90;;;;;;5203210;28;20028;-59
2022/08/15 00:46:50;;;;;;;4.57;3.30;;;17.70;99.90;;;;;;5218606;28;20029;-60
2022/08/15 00:49:23;;;;;;;6.13;4.00;;;17.70;99.90;;;;;;5217397;28;20033;-61
2022/08/15 00:52:10;;;;;;;6.53;3.90;;;17.70;99.90;;;;;;5218035;28;20027;-61
2022/08/15 00:54:47;;;;;;;5.50;3.72;;;17.70;99.90;;;;;;5219182;28;20187;-60
2022/08/15 00:57:31;;;;;;;4.13;3.70;;;17.70;99.90;;;;;;5220500;28;20299;-60
2022/08/15 01:00:14;;;;;;;5.90;4.10;;;17.70;99.90;;;;;;5198969;28;20035;-61
2022/08/15 01:02:46;;;;;;;5.35;3.70;;;17.80;99.90;;;;;;5199313;28;20013;-61
2022/08/15 01:05:20;;;;;;;8.25;4.63;;;17.80;99.90;;;;;;5205883;28;20045;-61
2022/08/15 01:07:51;;;;;;;5.43;3.80;;;17.80;99.90;;;;;;5216581;28;20119;-60
2022/08/15 01:10:23;;;;;;;6.05;4.68;;;17.90;99.90;;;;;;5217891;28;20452;-60
2022/08/15 01:13:00;;;;;;;5.95;3.70;;;17.90;99.90;;;;;;5217021;28;20214;-60
2022/08/15 01:15:35;;;;;;;6.20;3.85;;;17.90;99.90;;;;;;5217158;28;20029;-61
2022/08/15 01:18:07;;;;;;;5.53;4.07;;;17.90;99.90;;;;;;5220301;28;20039;-61
2022/08/15 01:20:44;;;;;;;4.72;3.67;;;17.90;99.90;;;;;;5217849;28;20023;-61
2022/08/15 01:23:28;;;;;;;4.90;3.70;;;17.90;99.90;;;;;;5218436;28;20023;-61
2022/08/15 01:26:06;;;;;;;4.22;3.65;;;17.90;99.90;;;;;;5216611;28;20504;-59
2022/08/15 01:28:42;;;;;;;7.13;4.40;;;17.90;99.90;;;;;;5216869;28;20021;-61
2022/08/15 01:31:21;;;;;;;5.00;3.78;;;17.90;99.90;;;;;;5228009;28;20052;-61
2022/08/15 01:34:00;;;;;;;6.63;4.03;;;17.90;99.90;;;;;;5234552;28;20025;-60
2022/08/15 01:36:35;;;;;;;5.38;3.97;;;17.80;99.90;;;;;;5207935;28;20019;-61
2022/08/15 01:39:21;;;;;;;;;;;17.80;99.90;;;;;;5183316;28;20037;-60
2022/08/15 01:42:15;;;;;;;5.07;3.80;;;17.80;99.90;;;;;;5199332;28;19901;-60
2022/08/15 01:45:00;;;;;;;8.40;3.88;;;17.70;99.90;;;;;;5199362;28;20031;-60
2022/08/15 01:47:44;;;;;;;;;;;17.70;99.90;;;;;;5217503;28;20013;-61
2022/08/15 01:50:40;;;;;;;5.82;4.18;;;17.60;99.90;;;;;;5216995;28;20162;-61
2022/08/15 01:53:20;;;;;;;5.70;4.07;;;17.60;99.90;;;;;;5212063;28;20021;-61
2022/08/15 01:56:11;;;;;;;5.60;3.85;;;17.60;99.90;;;;;;5207129;28;20029;-60
2022/08/15 01:58:46;;;;;;;5.43;4.20;;;17.60;99.90;;;;;;5193875;28;20032;-60
2022/08/15 02:01:37;;;;;;;7.25;3.85;;;17.60;99.90;;;;;;5165160;28;20028;-61
2022/08/15 02:04:16;;;;;;;8.07;5.07;;;17.60;99.90;;;;;;5215974;28;20025;-61
2022/08/15 02:06:52;;;;;;;5.22;4.15;;;17.60;99.90;;;;;;5187510;28;20063;-62
2022/08/15 02:09:29;;;;;;;6.38;4.68;;;17.60;99.90;;;;;;5215761;28;20031;-61
2022/08/15 02:12:05;;;;;;;6.75;4.30;;;17.70;99.90;;;;;;5229936;28;20020;-61
2022/08/15 02:14:37;;;;;;;7.47;4.78;;;17.60;99.90;;;;;;5218321;28;20025;-60
2022/08/15 02:17:09;;;;;;;5.53;4.38;;;17.50;99.90;;;;;;5201808;28;20324;-61
2022/08/15 02:19:48;;;;;;;10.57;4.15;;;17.40;99.90;;;;;;5218316;28;20025;-60
2022/08/15 02:22:22;;;;;;;5.57;3.80;;;17.40;99.90;;;;;;5208162;28;20313;-60
2022/08/15 02:24:59;;;;;;;;;;;17.50;99.90;;;;;;5200057;28;20028;-60
2022/08/15 02:27:37;;;;;;;6.43;4.38;;;17.50;99.90;;;;;;5214455;28;20194;-62
2022/08/15 02:30:19;;;;;;;6.05;4.10;;;17.50;99.90;;;;;;5214597;28;20054;-60
2022/08/15 02:32:53;;;;;;;6.78;4.60;;;17.50;99.90;;;;;;5217853;28;20194;-60
2022/08/15 02:35:26;;;;;;;5.97;4.13;;;17.50;99.90;;;;;;5224359;28;20027;-61
2022/08/15 02:38:01;;;;;;;10.73;4.88;;;17.50;99.90;;;;;;5215650;28;20025;-62
2022/08/15 02:40:34;;;;;;;7.95;5.18;;;17.50;99.90;;;;;;5217135;28;20023;-60
2022/08/15 02:43:12;;;;;;;7.00;4.47;;;17.40;99.90;;;;;;5197699;28;20024;-62
2022/08/15 02:45:47;;;;;;;6.95;3.80;;;17.40;99.90;;;;;;5215807;28;20051;-62
2022/08/15 02:48:18;;;;;;;6.22;4.15;;;17.40;99.90;;;;;;5198094;28;20025;-61
2022/08/15 02:50:54;;;;;;;6.07;3.92;;;17.40;99.90;;;;;;5197795;28;20206;-61
2022/08/15 02:53:26;;;;;;;6.15;4.20;;;17.40;99.90;;;;;;5203914;28;20079;-61
2022/08/15 02:56:06;;;;;;;7.70;4.47;;;17.40;99.90;;;;;;5215459;28;20035;-61
2022/08/15 02:58:41;;;;;;;7.15;4.15;;;17.40;99.90;;;;;;5187703;28;20302;-60
2022/08/15 03:01:12;;;;;;;5.13;3.83;;;17.40;99.90;;;;;;5197030;28;20191;-61
2022/08/15 03:03:51;;;;;;;5.35;4.32;;;17.40;99.90;;;;;;5196524;28;20017;-61
2022/08/15 03:06:30;;;;;;;6.30;4.70;;;17.30;99.90;;;;;;5187854;28;20518;-61
2022/08/15 03:09:06;;;;;;;5.50;4.38;;;17.30;99.90;;;;;;5217049;28;20024;-60
2022/08/15 03:11:39;;;;;;;9.00;5.25;;;17.30;99.90;;;;;;5199086;28;20020;-60
2022/08/15 03:14:19;;;;;;;5.38;4.45;;;17.40;99.90;;;;;;5216509;28;20037;-60
2022/08/15 03:16:53;;;;;;;6.32;4.05;;;17.30;99.90;;;;;;5215754;28;20496;-61
2022/08/15 03:19:27;;;;;;;9.52;5.10;;;17.30;99.90;;;;;;5216324;28;20183;-61
2022/08/15 03:22:01;;;;;;;8.27;4.90;;;17.30;99.90;;;;;;5204652;28;20028;-61
2022/08/15 03:24:35;;;;;;;8.43;5.10;;;17.20;99.90;;;;;;5219169;28;20029;-60
2022/08/15 03:27:06;;;;;;;5.35;4.43;;;17.20;99.90;;;;;;5217850;28;20027;-60
2022/08/15 03:29:37;;;;;;;6.53;4.03;;;17.10;99.90;;;;;;5211781;28;20025;-59
2022/08/15 03:32:12;;;;;;;8.20;4.72;;;17.10;99.90;;;;;;5202815;28;20031;-60
2022/08/15 03:34:46;;;;;;;8.20;5.00;;;17.10;99.90;;;;;;5203126;28;20059;-60
2022/08/15 03:37:17;;;;;;;6.20;4.53;;;17.10;99.90;;;;;;5230508;28;20021;-60
2022/08/15 03:39:53;;;;;;;6.40;5.03;;;17.10;99.90;;;;;;5241315;28;20660;-61
2022/08/15 03:42:26;;;;;;;6.75;4.68;;;17.00;99.90;;;;;;5239181;28;20027;-60
2022/08/15 03:45:02;;;;;;;6.43;4.18;;;17.00;99.90;;;;;;5190376;28;20249;-65
2022/08/15 03:47:33;;;;;;;6.07;4.55;;;17.00;99.90;;;;;;5211937;28;20194;-61
2022/08/15 03:50:05;;;;;;;5.97;4.70;;;16.90;99.90;;;;;;5224449;28;20020;-60
2022/08/15 03:52:57;;;;;;;7.00;4.18;;;16.80;99.90;;;;;;5224631;28;20059;-61
2022/08/15 03:55:33;;;;;;;5.68;4.35;;;16.80;99.90;;;;;;5220088;28;20035;-61
2022/08/15 03:58:06;;;;;;;7.03;5.13;;;16.80;99.90;;;;;;5237079;28;20016;-60
2022/08/15 04:00:45;;;;;;;6.05;4.57;;;16.80;99.90;;;;;;5223045;28;20474;-60
2022/08/15 04:03:23;;;;;;;5.13;4.30;;;16.80;99.90;;;;;;5203450;28;20024;-61
2022/08/15 04:06:04;;;;;;;7.93;4.82;;;16.80;99.90;;;;;;5190785;28;20051;-61
2022/08/15 04:08:42;;;;;;;6.93;4.90;;;16.80;99.90;;;;;;5219077;28;20297;-61
2022/08/15 04:11:17;;;;;;;7.78;5.45;;;16.90;99.90;;;;;;5220583;28;20694;-61
2022/08/15 04:13:51;;;;;;;7.70;4.70;;;17.00;99.90;;;;;;5221670;28;20234;-61
2022/08/15 04:16:25;;;;;;;8.57;5.55;;;17.10;99.90;;;;;;5203035;28;20017;-61
2022/08/15 04:18:59;;;;;;;7.00;4.85;;;17.20;99.90;;;;;;5220451;28;20027;-61
2022/08/15 04:21:35;;;;;;;6.35;4.25;;;17.40;99.90;;;;;;5201080;28;20050;-61
2022/08/15 04:24:07;;;;;;;5.95;4.43;;;17.50;99.90;;;;;;5220041;28;20316;-60
2022/08/15 04:26:41;;;;;;;5.80;4.38;;;17.60;99.90;;;;;;5201141;28;20027;-62
2022/08/15 04:29:15;;;;;;;6.03;4.47;;;17.80;99.90;;;;;;5217245;28;20025;-62
2022/08/15 04:31:49;;;;;;;7.13;4.10;;;17.80;99.90;;;;;;5219712;28;20025;-62
2022/08/15 04:34:22;;;;;;;6.30;4.68;;;17.90;99.90;;;;;;5218908;28;20029;-61
2022/08/15 04:36:58;;;;;;;6.10;4.70;;;18.00;99.90;;;;;;5219373;28;20218;-62
2022/08/15 04:39:29;;;;;;;4.47;3.40;;;18.10;99.90;;;;;;5219178;28;20260;-61
2022/08/15 04:42:01;;;;;;;5.40;4.03;;;18.30;99.90;;;;;;5218079;28;20323;-63
2022/08/15 04:44:35;;;;;;;6.32;4.15;;;18.40;99.90;;;;;;5201425;28;20191;-63
2022/08/15 04:47:08;;;;;;;5.70;3.72;;;18.50;99.90;;;;;;5217870;28;20047;-62
2022/08/15 04:49:48;;;;;;;5.40;3.88;;;18.70;99.90;;;;;;5201043;28;20027;-61
2022/08/15 04:52:24;;;;;;;4.88;3.55;;;18.80;99.90;;;;;;5218794;28;20031;-62
2022/08/15 04:54:58;;;;;;;4.68;3.63;;;18.90;99.90;;;;;;5219241;28;20037;-62
2022/08/15 04:57:29;;;;;;;6.30;4.30;;;19.10;99.90;;;;;;5218288;28;20322;-61
2022/08/15 05:00:07;;;;;;;6.63;3.70;;;19.30;99.90;;;;;;5200681;28;20029;-62
2022/08/15 05:02:42;;;;;;;5.65;3.80;;;19.50;99.90;;;;;;5200942;28;20031;-61
2022/08/15 05:05:15;;;;;;;4.72;3.28;;;19.60;99.90;;;;;;5208044;28;20365;-62
2022/08/15 05:07:47;;;;;;;7.40;3.88;;;19.50;99.90;;;;;;5200693;28;20024;-63
2022/08/15 05:10:20;;;;;;;6.88;3.53;;;19.40;99.90;;;;;;5219534;28;20017;-60
2022/08/15 05:12:52;;;;;;;5.50;4.03;;;19.30;99.90;;;;;;5215941;28;20154;-61
2022/08/15 05:15:29;;;;;;;4.93;3.38;;;19.20;99.90;;;;;;5216798;28;20032;-61
2022/08/15 05:18:03;;;;;;;5.68;4.47;;;19.20;99.90;;;;;;5217682;28;20685;-61
2022/08/15 05:20:36;;;;;;;5.35;3.80;;;19.30;99.90;;;;;;5200058;28;20021;-61
2022/08/15 05:23:10;;;;;;;5.05;3.60;;;19.40;99.90;;;;;;5217638;28;20029;-61
2022/08/15 05:25:48;;;;;;;5.25;3.67;;;19.50;99.90;;;;;;5217788;28;20027;-60
2022/08/15 05:28:24;;;;;;;5.47;4.43;;;19.60;99.90;;;;;;5219073;28;20028;-61
2022/08/15 05:31:01;;;;;;;6.57;4.43;;;19.80;99.90;;;;;;5195846;28;20025;-61
2022/08/15 05:33:36;;;;;;;5.13;3.63;;;19.90;99.90;;;;;;5214200;28;20029;-61
2022/08/15 05:36:08;;;;;;;;;;;20.10;99.90;;;;;;5209630;28;20036;-62
2022/08/15 05:38:49;;;;;;;6.45;3.83;;;20.30;99.90;;;;;;5216790;28;19907;-62
2022/08/15 05:41:43;;;;;;;5.38;4.13;;;20.40;99.90;;;;;;5230110;28;20020;-62
2022/08/15 05:44:31;;;;;;;7.57;4.90;;;20.50;99.90;;;;;;5151705;28;20034;-62
2022/08/15 05:47:12;;;;;;;6.63;4.15;;;20.50;99.90;;;;;;5137397;28;20034;-61
2022/08/15 05:50:06;;;;;;;5.38;3.58;;;20.50;99.90;;;;;;5152250;28;20037;-61
2022/08/15 05:52:51;;;;;;;6.80;4.20;;;20.60;99.90;;;;;;5136972;28;20053;-61
2022/08/15 05:55:42;;;;;;;5.55;4.03;;;20.60;99.90;;;;;;5152993;28;20060;-61
2022/08/15 05:58:22;;;;;;;7.97;5.35;;;20.60;99.90;;;;;;5152523;28;20304;-61
2022/08/15 06:01:08;;;;;;;5.75;4.45;;;20.90;99.90;;;;;;5136475;28;20032;-61
2022/08/15 06:03:43;;;;;;;6.30;4.55;;;21.20;99.90;;;;;;5132836;28;20026;-60
2022/08/15 06:06:20;;;;;;;6.78;4.63;;;21.50;99.90;;;;;;5143351;28;20050;-61
2022/08/15 06:09:05;;;;;;;8.00;4.28;;;21.80;99.90;;;;;;5158222;28;20451;-63
2022/08/15 06:11:46;;;;;;;7.68;3.95;;;22.00;99.90;;;;;;5151003;28;20026;-62
2022/08/15 06:14:40;;;;;;;5.90;3.63;;;22.90;99.90;;;;;;5150131;28;20038;-61
2022/08/15 06:17:28;;;;;;;4.40;3.50;;;23.10;99.90;;;;;;5132373;28;20312;-60
2022/08/15 06:20:06;;;;;;;8.35;4.13;;;23.20;99.90;;;;;;5116656;28;20049;-63
2022/08/15 06:23:05;;;;;;;5.88;3.65;;;23.80;99.90;;;;;;5199183;28;20297;-61
2022/08/15 06:26:00;;;;;;;7.05;4.53;;;24.10;99.90;;;;;;5216848;28;20314;-62
2022/08/15 06:28:59;;;;;;;6.72;4.50;;;24.40;99.90;;;;;;5195894;28;20326;-62
2022/08/15 06:31:40;;;;;;;8.63;4.18;;;24.50;99.90;;;;;;5195533;28;20401;-61
2022/08/15 06:34:49;;;;;;;7.35;4.63;;;24.30;99.90;;;;;;5218294;28;20246;-61
2022/08/15 06:37:27;;;;;;;4.90;3.63;;;24.40;99.90;;;;;;5231001;28;20248;-60
2022/08/15 06:40:04;;;;;;;8.15;4.00;;;24.50;99.90;;;;;;5234534;28;20035;-60
2022/08/15 06:42:42;;;;;;;6.22;4.25;;;24.70;99.90;;;;;;5213064;28;20021;-61
2022/08/15 06:45:31;;;;;;;10.20;4.43;;;25.00;99.90;;;;;;5232883;28;20025;-62
2022/08/15 06:48:08;;;;;;;4.57;3.60;;;25.30;99.90;;;;;;5216039;28;20206;-60
2022/08/15 06:50:46;;;;;;;6.57;4.28;;;25.00;99.90;;;;;;5203984;28;20037;-60
2022/08/15 06:53:25;;;;;;;6.97;4.13;;;25.30;99.90;;;;;;5218213;28;20033;-61
2022/08/15 06:56:01;;;;;;;6.30;4.35;;;25.40;99.90;;;;;;5221964;28;20028;-63
2022/08/15 06:58:49;;;;;;;6.53;4.32;;;25.50;99.90;;;;;;5216521;28;20028;-60
2022/08/15 07:01:37;;;;;;;7.38;3.78;;;25.50;99.90;;;;;;5209869;28;20024;-61
2022/08/15 07:04:27;;;;;;;5.72;3.90;;;25.70;99.90;;;;;;5216532;28;20317;-61
2022/08/15 07:07:00;;;;;;;8.77;4.68;;;25.70;99.90;;;;;;5153079;28;20041;-62
2022/08/15 07:09:43;;;;;;;5.50;3.80;;;25.50;99.90;;;;;;5196782;28;20035;-61
2022/08/15 07:12:43;;;;;;;5.18;3.53;;;25.70;99.90;;;;;;5195778;28;20024;-61
2022/08/15 07:15:24;;;;;;;6.50;4.43;;;26.20;99.90;;;;;;5215697;28;20029;-62
2022/08/15 07:18:09;;;;;;;5.93;3.72;;;26.20;99.90;;;;;;5202208;28;20209;-61
2022/08/15 07:20:40;;;;;;;5.40;3.97;;;26.20;99.90;;;;;;5236541;28;20308;-62
2022/08/15 07:23:23;;;;;;;5.05;3.60;;;26.40;99.90;;;;;;5236183;28;20031;-66
2022/08/15 07:26:04;;;;;;;5.65;3.97;;;26.80;99.90;;;;;;5235881;28;20321;-62
2022/08/15 07:28:39;;;;;;;4.45;3.17;;;26.70;99.90;;;;;;5225860;28;20017;-61
2022/08/15 07:31:34;;;;;;;4.85;3.55;;;26.70;99.90;;;;;;5216023;28;20021;-61
2022/08/15 07:34:21;;;;;;;4.40;3.20;;;27.20;99.90;;;;;;5197468;28;20355;-61
2022/08/15 07:37:02;;;;;;;5.10;3.75;;;27.50;99.90;;;;;;5194629;28;20332;-61
2022/08/15 07:39:44;;;;;;;4.88;3.17;;;28.00;99.90;;;;;;5209539;28;20027;-61
2022/08/15 07:42:24;;;;;;;4.38;3.20;;;27.70;99.90;;;;;;5188092;28;20027;-62
2022/08/15 07:45:02;;;;;;;4.15;2.92;;;27.60;99.90;;;;;;5213101;28;20036;-61
2022/08/15 07:47:41;;;;;;;4.40;2.80;;;27.20;99.90;;;;;;5216846;28;20209;-63
2022/08/15 07:50:12;;;;;;;3.95;2.97;;;27.70;99.90;;;;;;5214373;28;20233;-60
2022/08/15 07:52:56;;;;;;;4.55;3.55;;;26.90;99.90;;;;;;5215074;28;20017;-61
2022/08/15 07:55:36;;;;;;;4.28;3.65;;;26.90;99.90;;;;;;5214714;28;20033;-62
2022/08/15 07:58:20;;;;;;;4.18;3.25;;;26.60;99.90;;;;;;5218379;28;20034;-63
2022/08/15 08:01:05;;;;;;;6.97;3.85;;;26.40;99.90;;;;;;5234619;28;20039;-61
2022/08/15 08:03:40;;;;;;;3.72;3.17;;;26.40;99.90;;;;;;5194264;28;20163;-61
2022/08/15 08:06:39;;;;;;;4.57;3.15;;;26.50;99.90;;;;;;5199551;28;20051;-61
2022/08/15 08:09:18;;;;;;;4.03;2.85;;;26.50;99.90;;;;;;5197016;28;20037;-61
2022/08/15 08:12:15;;;;;;;4.65;3.45;;;26.30;99.90;;;;;;5216988;28;20217;-62
2022/08/15 08:15:02;;;;;;;5.93;3.42;;;26.20;99.90;;;;;;5219731;28;20330;-62
2022/08/15 08:17:49;;;;;;;4.40;3.47;;;25.90;99.90;;;;;;5219469;28;20308;-60
2022/08/15 08:20:36;;;;;;;5.25;3.03;;;25.90;99.90;;;;;;5218280;28;20059;-62
2022/08/15 08:23:21;;;;;;;5.85;3.33;;;26.10;99.90;;;;;;5223985;28;20027;-62
2022/08/15 08:26:22;;;;;;;4.97;3.40;;;26.50;99.90;;;;;;5239267;28;20036;-61
2022/08/15 08:29:15;;;;;;;5.05;3.97;;;26.20;99.90;;;;;;5212793;28;20076;-61
2022/08/15 08:32:14;;;;;;;6.55;3.97;;;26.60;99.90;;;;;;5197487;28;20025;-62
2022/08/15 08:35:03;;;;;;;4.53;3.28;;;26.70;99.90;;;;;;5197785;28;20033;-64
2022/08/15 08:37:53;;;;;;;3.25;2.92;;;27.00;99.90;;;;;;5228854;28;20021;-61
2022/08/15 08:43:59;;;;;;;5.00;3.20;;;27.70;99.90;;;;;;5221378;28;20036;-61
2022/08/15 08:47:11;;;;;;;4.20;3.13;;;27.60;99.90;;;;;;5237763;28;20036;-63
2022/08/15 08:50:24;;;;;;;3.95;2.90;;;28.30;99.90;;;;;;5229859;28;20202;-61
2022/08/15 08:53:15;;;;;;;4.47;3.30;;;28.40;99.90;;;;;;5232496;28;20036;-61
2022/08/15 08:55:53;;;;;;;3.97;2.80;;;28.20;99.90;;;;;;5241313;28;20025;-61
2022/08/15 08:58:24;;;;;;;3.70;2.92;;;28.40;99.90;;;;;;5218555;28;20023;-62
2022/08/15 09:00:57;;;;;;;4.30;3.50;;;28.20;99.90;;;;;;5201052;28;20291;-60
2022/08/15 09:03:36;;;;;;;3.25;2.65;;;28.30;99.90;;;;;;5218572;28;20032;-61
2022/08/15 09:06:15;;;;;;;3.83;3.17;;;28.40;99.90;;;;;;5206004;28;20043;-61
2022/08/15 09:09:03;;;;;;;4.00;2.88;;;28.40;99.90;;;;;;5223733;28;20027;-61
2022/08/15 09:11:47;;;;;;;3.60;2.80;;;28.50;99.90;;;;;;5201037;28;20024;-62
2022/08/15 09:14:37;;;;;;;3.55;2.80;;;28.60;99.90;;;;;;5218397;28;20233;-61
2022/08/15 09:17:16;;;;;;;3.92;3.28;;;28.40;99.90;;;;;;5211086;28;20035;-61
2022/08/15 09:19:55;;;;;;;3.90;3.05;;;28.90;99.90;;;;;;5218654;28;20021;-61
2022/08/15 09:22:30;;;;;;;3.45;2.65;;;29.60;99.90;;;;;;5200853;28;20021;-61
2022/08/15 09:25:02;;;;;;;2.90;2.60;;;29.80;99.90;;;;;;5202575;28;20413;-62
2022/08/15 09:27:53;;;;;;;3.80;3.17;;;30.20;99.90;;;;;;5231032;28;20187;-62
2022/08/15 09:30:29;;;;;;;4.68;3.05;;;29.70;99.90;;;;;;5233283;28;20507;-62
2022/08/15 09:33:29;;;;;;;4.10;3.40;;;29.30;99.90;;;;;;5236114;28;20028;-61
2022/08/15 09:36:16;;;;;;;4.10;2.85;;;29.30;99.90;;;;;;5197937;28;20448;-61
2022/08/15 09:39:13;;;;;;;4.05;3.15;;;29.40;99.90;;;;;;5218210;28;20029;-62
2022/08/15 09:42:03;;;;;;;3.90;3.00;;;29.00;99.90;;;;;;5187463;28;20032;-62
2022/08/15 09:44:44;;;;;;;3.45;2.75;;;29.60;99.90;;;;;;5211812;28;20024;-63
2022/08/15 09:47:32;;;;;;;4.57;3.25;;;29.10;99.90;;;;;;5204410;28;20028;-60
2022/08/15 09:50:38;;;;;;;4.03;3.20;;;29.30;99.90;;;;;;5238618;28;20027;-62
2022/08/15 09:53:17;;;;;;;3.47;2.97;;;29.20;99.90;;;;;;5173745;28;20029;-62
2022/08/15 09:55:52;;;;;;;3.92;3.55;;;28.70;99.90;;;;;;5175181;28;20856;-63
2022/08/15 09:58:36;;;;;;;4.38;3.20;;;28.50;99.90;;;;;;5193798;28;20378;-61
2022/08/15 10:01:12;;;;;;;3.40;3.00;;;28.40;99.90;;;;;;5198605;28;20310;-61
2022/08/15 10:03:43;;;;;;;4.97;3.13;;;28.70;99.90;;;;;;5158352;28;20029;-60
2022/08/15 10:06:23;;;;;;;2.90;2.60;;;28.80;99.90;;;;;;5130323;28;20381;-61
2022/08/15 10:08:57;;;;;;;4.13;3.00;;;28.80;99.90;;;;;;5154219;28;20090;-61
2022/08/15 10:11:42;;;;;;;3.95;2.95;;;28.80;99.90;;;;;;5173596;28;20216;-62
2022/08/15 10:14:19;;;;;;;5.38;3.10;;;28.70;99.90;;;;;;5174149;28;20044;-61
2022/08/15 10:16:54;;;;;;;3.35;2.95;;;29.20;99.90;;;;;;5173051;28;20247;-62
2022/08/15 10:19:39;;;;;;;;;;;29.30;99.90;;;;;;5160198;28;20318;-62
2022/08/15 10:22:22;;;;;;;3.05;2.72;;;29.60;99.90;;;;;;5162605;28;20210;-62
2022/08/15 10:25:26;;;;;;;3.55;2.97;;;29.70;99.90;;;;;;5174200;28;20026;-61
2022/08/15 10:28:06;;;;;;;3.22;2.72;;;29.80;99.90;;;;;;5180939;28;20035;-62
2022/08/15 10:30:51;;;;;;;3.72;2.95;;;29.60;99.90;;;;;;5198410;28;20025;-61
2022/08/15 10:33:53;;;;;;;3.60;2.85;;;29.60;99.90;;;;;;5238354;28;20233;-61
2022/08/15 10:36:35;;;;;;;3.22;2.88;;;29.60;99.90;;;;;;5240195;28;20206;-61
2022/08/15 10:39:12;;;;;;;4.70;2.60;;;30.00;99.90;;;;;;5239305;28;20035;-62
2022/08/15 10:41:49;;;;;;;3.65;2.88;;;31.60;99.90;;;;;;5232577;28;20059;-62
2022/08/15 10:44:42;;;;;;;3.45;2.95;;;31.70;99.90;;;;;;5197976;28;20033;-62
2022/08/15 10:47:23;;;;;;;3.80;2.80;;;32.10;99.90;;;;;;5218462;28;20016;-62
2022/08/15 10:50:08;;;;;;;3.25;2.88;;;33.70;99.90;;;;;;5198307;28;20325;-63
2022/08/15 10:52:45;;;;;;;4.38;2.75;;;33.00;99.90;;;;;;5182878;28;20029;-62
2022/08/15 10:55:23;;;;;;;3.75;2.72;;;33.20;99.90;;;;;;5196884;28;20353;-63
2022/08/15 10:58:12;;;;;;;4.25;3.17;;;33.20;99.90;;;;;;5211199;28;20039;-60
2022/08/15 11:00:50;;;;;;;3.22;2.83;;;33.20;99.90;;;;;;5197416;28;20210;-62
2022/08/15 11:04:02;;;;;;;4.05;3.10;;;32.80;99.90;;;;;;5214966;28;20019;-62
2022/08/15 11:06:45;;;;;;;4.78;2.88;;;33.20;99.90;;;;;;5190444;28;20049;-63
2022/08/15 11:09:20;;;;;;;3.30;2.97;;;33.30;99.90;;;;;;5175230;28;20460;-63
2022/08/15 11:11:53;;;;;;;2.90;2.53;;;33.10;99.90;;;;;;5203357;28;20033;-62
2022/08/15 11:14:28;;;;;;;2.70;2.50;;;33.40;99.90;;;;;;5196448;28;20334;-62
2022/08/15 11:17:00;;;;;;;6.00;3.00;;;34.10;99.90;;;;;;5192841;28;20521;-61
2022/08/15 11:19:37;;;;;;;3.22;2.90;;;35.10;99.90;;;;;;5200985;28;20346;-63
2022/08/15 11:22:20;;;;;;;3.40;3.10;;;34.70;99.90;;;;;;5198931;28;20029;-62
2022/08/15 11:25:17;;;;;;;3.40;2.47;;;34.60;99.90;;;;;;5191922;28;20342;-62
2022/08/15 11:28:15;;;;;;;3.10;2.80;;;34.80;99.90;;;;;;5176030;28;20335;-63
2022/08/15 11:30:50;;;;;;;2.97;2.50;;;34.80;99.90;;;;;;5190874;28;20018;-62
2022/08/15 11:33:26;;;;;;;3.15;2.65;;;35.70;99.90;;;;;;5177325;28;20033;-62
2022/08/15 11:36:09;;;;;;;3.17;2.75;;;35.50;99.90;;;;;;5193217;28;20044;-62
2022/08/15 11:38:45;;;;;;;3.22;2.45;;;37.10;99.90;;;;;;5194405;28;20029;-61
2022/08/15 11:41:25;;;;;;;2.65;2.22;;;37.10;99.90;;;;;;5214353;28;20043;-62
2022/08/15 11:44:00;;;;;;;3.58;2.75;;;36.90;99.90;;;;;;5217615;28;20230;-61
2022/08/15 11:46:40;;;;;;;2.72;2.25;;;37.80;99.90;;;;;;5221183;28;20017;-63
2022/08/15 11:49:27;;;;;;;3.00;2.70;;;37.70;99.90;;;;;;5201795;28;20063;-61
2022/08/15 11:52:03;;;;;;;2.28;2.08;;;35.90;99.90;;;;;;5219689;28;20044;-62
2022/08/15 11:54:37;;;;;;;3.00;2.60;;;36.60;99.90;;;;;;5202646;28;20037;-61
2022/08/15 11:57:10;;;;;;;3.35;2.60;;;37.10;99.90;;;;;;5221071;28;20298;-62
2022/08/15 12:00:04;;;;;;;3.50;2.70;;;38.60;99.90;;;;;;5220699;28;20183;-63
2022/08/15 12:02:35;;;;;;;3.83;3.08;;;35.80;99.90;;;;;;5228279;28;20251;-62
2022/08/15 12:05:33;;;;;;;3.28;2.97;;;35.60;99.90;;;;;;5192551;28;20071;-61
2022/08/15 12:08:06;;;;;;;2.63;2.42;;;36.10;99.90;;;;;;5202071;28;20039;-63
2022/08/15 12:10:42;;;;;;;4.10;2.60;;;36.60;99.90;;;;;;5203129;28;20031;-62
2022/08/15 12:13:25;;;;;;;2.47;2.28;;;36.30;99.90;;;;;;5213112;28;20041;-63
2022/08/15 12:15:59;;;;;;;3.40;2.85;;;35.30;99.90;;;;;;5201921;28;20033;-62
2022/08/15 12:18:34;;;;;;;3.25;2.58;;;35.00;99.90;;;;;;5219446;28;20360;-62
2022/08/15 12:21:12;;;;;;;3.80;2.78;;;35.90;99.90;;;;;;5202394;28;20029;-61
2022/08/15 12:23:52;;;;;;;3.33;2.58;;;37.10;99.90;;;;;;5205290;28;20447;-61
2022/08/15 12:26:28;;;;;;;3.08;2.25;;;35.40;99.90;;;;;;5202919;28;20226;-62
2022/08/15 12:28:59;;;;;;;2.92;1.88;;;34.30;99.90;;;;;;5219883;28;20021;-63
2022/08/15 12:31:37;;;;;;;3.10;2.33;;;35.00;99.90;;;;;;5202516;28;20445;-62
2022/08/15 12:34:19;;;;;;;2.72;2.42;;;34.50;99.90;;;;;;5220759;28;20452;-65
2022/08/15 12:36:51;;;;;;;1.80;1.70;;;33.10;99.90;;;;;;5204166;28;20410;-63
2022/08/15 12:39:22;;;;;;;1.70;1.60;;;34.60;99.90;;;;;;5201776;28;20056;-61
2022/08/15 12:41:57;;;;;;;1.95;1.75;;;35.30;99.90;;;;;;5201870;28;20051;-63
2022/08/15 12:44:40;;;;;;;2.22;1.98;;;35.40;99.90;;;;;;5215447;28;20040;-61
2022/08/15 12:47:14;;;;;;;2.78;2.08;;;35.10;99.90;;;;;;5202430;28;20349;-61
2022/08/15 12:50:18;;;;;;;1.92;1.65;;;35.00;99.90;;;;;;5193488;28;20047;-60
2022/08/15 12:52:51;;;;;;;1.70;1.60;;;36.10;99.90;;;;;;5199803;28;20226;-62
2022/08/15 12:55:22;;;;;;;2.28;1.95;;;36.00;99.90;;;;;;5200257;28;20017;-62
2022/08/15 12:57:54;;;;;;;2.58;2.10;;;36.50;99.90;;;;;;5201627;28;20302;-62
2022/08/15 13:00:26;;;;;;;3.25;2.30;;;37.60;99.90;;;;;;5234099;28;20032;-62
2022/08/15 13:03:03;;;;;;;3.25;2.50;;;37.50;99.90;;;;;;5231479;28;20024;-62
2022/08/15 13:05:35;;;;;;;3.10;2.10;;;38.10;99.90;;;;;;5180927;28;20217;-61
2022/08/15 13:08:09;;;;;;;2.45;2.20;;;37.80;99.90;;;;;;5216303;28;20195;-61
2022/08/15 13:10:42;;;;;;;2.30;2.00;;;37.80;99.90;;;;;;5221055;28;20032;-63
2022/08/15 13:13:14;;;;;;;;;;;39.30;99.90;;;;;;5219849;28;20036;-63
2022/08/15 13:15:50;;;;;;;2.65;2.42;;;38.10;99.90;;;;;;5202529;28;19931;-62
2022/08/15 13:18:27;;;;;;;2.53;2.10;;;36.70;99.90;;;;;;5239264;28;20039;-62
2022/08/15 13:23:51;;;;;;;2.20;2.00;;;37.60;99.90;;;;;;5241440;28;20024;-61
2022/08/15 13:26:30;;;;;;;1.90;1.75;;;36.70;99.90;;;;;;5219459;28;20194;-62
2022/08/15 13:29:02;;;;;;;2.13;1.80;;;37.80;99.90;;;;;;5239071;28;20032;-62
2022/08/15 13:31:34;;;;;;;2.08;1.65;;;37.70;99.90;;;;;;5241743;28;20031;-62
2022/08/15 13:34:08;;;;;;;1.98;1.80;;;38.40;99.90;;;;;;5198941;28;20041;-63
2022/08/15 13:36:41;;;;;;;2.38;1.90;;;39.30;99.90;;;;;;5226090;28;20039;-62
2022/08/15 13:39:20;;;;;;;1.85;1.70;;;38.90;99.90;;;;;;5211653;28;20037;-64
2022/08/15 13:41:54;;;;;;;2.08;1.77;;;36.80;99.90;;;;;;5218634;28;20027;-63
2022/08/15 13:44:34;;;;;;;2.40;2.20;;;37.00;99.90;;;;;;5205028;28;20310;-63
2022/08/15 13:47:09;;;;;;;1.77;1.60;;;39.30;99.90;;;;;;5216085;28;20032;-61
2022/08/15 13:49:42;;;;;;;3.40;2.25;;;38.60;99.70;;;;;;5218790;28;20072;-61
2022/08/15 13:52:22;;;;;;;2.25;1.80;;;37.20;99.90;;;;;;5204619;28;20203;-64
2022/08/15 13:54:56;;;;;;;1.60;1.50;;;36.40;99.90;;;;;;5204612;28;20025;-63
2022/08/15 13:57:28;;;;;;;2.28;1.88;;;35.00;99.90;;;;;;5201966;28;20033;-61
2022/08/15 13:59:59;;;;;;;1.95;1.70;;;33.90;99.90;;;;;;5186051;28;20037;-61
2022/08/15 14:02:37;;;;;;;1.95;1.73;;;33.70;99.90;;;;;;5200899;28;20364;-62